Time;durP1;ratioP1;P1;durP2;ratioP2;P2;SDS_P1;SDS_P2;PMS_P1;PMS_P2;Temp;Humidity;BMP_temperature;BMP_pressure;BME280_temperature;BME280_humidity;BME280_pressure;Samples;Min_cycle;Max_cycle;Signal;HPM_P1;HPM_P2
2022/01/03 00:00:38;;;;;;;21.90;2.80;;;;;;;9.19;89.29;100975.19;4987802;28;20072;-70
2022/01/03 00:03:08;;;;;;;24.83;2.45;;;;;;;9.16;89.17;100976.28;4982165;28;20526;-70
2022/01/03 00:05:33;;;;;;;23.42;2.75;;;;;;;9.19;88.82;100973.41;4994425;28;20050;-70
2022/01/03 00:07:59;;;;;;;24.10;2.50;;;;;;;9.15;88.75;100967.72;4978645;28;20073;-70
2022/01/03 00:10:25;;;;;;;26.38;2.60;;;;;;;9.14;88.71;100973.84;4988900;28;20043;-69
2022/01/03 00:12:52;;;;;;;18.25;3.15;;;;;;;9.11;88.78;100968.94;4987567;28;20049;-71
2022/01/03 00:15:19;;;;;;;26.23;2.80;;;;;;;9.11;88.59;100971.53;4990857;28;20072;-70
2022/01/03 00:17:46;;;;;;;30.05;3.80;;;;;;;9.11;88.38;100984.47;4986128;28;20038;-70
2022/01/03 00:20:13;;;;;;;30.52;2.55;;;;;;;9.04;88.68;100992.94;4988007;28;20031;-70
2022/01/03 00:22:53;;;;;;;28.38;3.80;;;;;;;9.11;87.94;100979.28;4984991;28;20136;-70
2022/01/03 00:25:21;;;;;;;24.83;2.75;;;;;;;9.13;88.34;100984.31;4986258;28;20038;-70
2022/01/03 00:28:19;;;;;;;17.15;2.67;;;;;;;9.06;88.45;100986.69;4991897;28;20087;-70
2022/01/03 00:30:46;;;;;;;27.55;2.67;;;;;;;9.05;88.37;100982.44;4989528;28;20034;-71
2022/01/03 00:33:14;;;;;;;33.05;4.03;;;;;;;9.08;88.18;100989.94;4988810;28;20034;-70
2022/01/03 00:35:42;;;;;;;20.98;3.35;;;;;;;9.14;87.99;100975.63;4987768;28;20513;-70
2022/01/03 00:38:09;;;;;;;24.02;2.97;;;;;;;9.06;87.83;100986.69;4985471;28;20030;-71
2022/01/03 00:40:37;;;;;;;26.67;3.17;;;;;;;8.98;88.97;100988.34;4988214;28;20030;-71
2022/01/03 00:43:04;;;;;;;25.13;2.38;;;;;;;9.01;88.68;100986.28;4989150;28;20038;-70
2022/01/03 00:45:30;;;;;;;20.85;2.90;;;;;;;8.99;88.79;100995.97;4987753;28;20029;-71
2022/01/03 00:47:56;;;;;;;21.30;2.38;;;;;;;8.93;89.03;100999.91;4989232;28;20124;-70
2022/01/03 00:50:22;;;;;;;22.83;3.13;;;;;;;8.98;88.78;100998.69;5000352;28;20030;-70
2022/01/03 00:52:50;;;;;;;26.98;3.05;;;;;;;8.95;89.00;101004.97;4987664;28;20049;-69
2022/01/03 00:55:16;;;;;;;21.30;3.92;;;;;;;8.95;88.52;101007.53;4986808;28;20037;-70
2022/01/03 00:57:44;;;;;;;19.83;3.15;;;;;;;8.89;89.11;101003.75;4990667;28;20490;-70
2022/01/03 01:00:11;;;;;;;20.95;2.72;;;;;;;8.88;89.10;101004.69;4989703;28;20031;-70
2022/01/03 01:02:44;;;;;;;22.90;2.13;;;;;;;8.86;88.92;101008.38;4991169;28;20113;-70
2022/01/03 01:05:09;;;;;;;29.93;3.00;;;;;;;8.89;88.83;100998.56;4973503;28;20042;-70
2022/01/03 01:07:38;;;;;;;22.65;2.58;;;;;;;8.98;88.29;101007.25;4995474;28;20481;-70
2022/01/03 01:10:06;;;;;;;22.77;2.90;;;;;;;8.96;88.30;101006.56;4990545;28;20073;-70
2022/01/03 01:12:33;;;;;;;21.15;2.47;;;;;;;8.96;88.12;101006.56;4993855;28;20034;-70
2022/01/03 01:14:59;;;;;;;18.63;2.55;;;;;;;8.91;88.30;101019.09;4989511;28;20041;-70
2022/01/03 01:17:26;;;;;;;22.30;3.15;;;;;;;8.87;88.38;101002.22;4991930;28;20530;-70
2022/01/03 01:19:56;;;;;;;23.60;3.30;;;;;;;8.86;88.77;101014.34;4993035;28;20038;-70
2022/01/03 01:22:23;;;;;;;32.83;3.78;;;;;;;8.89;88.56;101015.84;4988557;28;20113;-70
2022/01/03 01:27:46;;;;;;;31.23;4.38;;;;;;;8.93;88.24;101012.03;4989387;28;20030;-70
2022/01/03 01:27:49;;;;;;;24.87;3.73;;;;;;;8.86;88.25;101016.13;4987711;28;20111;-70
2022/01/03 01:30:27;;;;;;;22.08;2.47;;;;;;;8.88;87.91;101027.97;4990398;28;20535;-69
2022/01/03 01:33:03;;;;;;;20.63;3.10;;;;;;;8.88;88.03;101022.78;4992285;28;20450;-70
2022/01/03 01:35:37;;;;;;;16.38;3.00;;;;;;;8.95;87.62;101028.22;5006644;23;20049;-70
2022/01/03 01:38:07;;;;;;;20.63;2.83;;;;;;;8.98;87.39;101032.31;5010806;28;20049;-70
2022/01/03 01:40:46;;;;;;;20.92;3.50;;;;;;;9.04;87.07;101027.41;5007000;28;20133;-70
2022/01/03 01:43:15;;;;;;;15.70;2.33;;;;;;;9.00;87.19;101017.44;5028373;28;20564;-70
2022/01/03 01:45:43;;;;;;;26.02;3.75;;;;;;;8.98;87.44;101027.13;5023080;28;20071;-70
2022/01/03 01:48:12;;;;;;;25.05;2.55;;;;;;;8.92;87.73;101031.91;5029810;28;20095;-70
2022/01/03 01:50:41;;;;;;;26.08;2.47;;;;;;;8.89;87.48;101029.59;4987899;28;20033;-70
2022/01/03 01:53:09;;;;;;;25.75;2.85;;;;;;;8.82;88.13;101030.31;4995628;28;20043;-70
2022/01/03 01:55:40;;;;;;;25.15;3.17;;;;;;;8.81;87.98;101036.41;5029370;28;20588;-70
2022/01/03 01:58:15;;;;;;;18.88;2.47;;;;;;;8.80;87.79;101039.94;5029774;28;20080;-70
2022/01/03 02:00:56;;;;;;;20.67;2.47;;;;;;;8.76;87.88;101047.19;5010090;28;20033;-70
2022/01/03 02:03:52;;;;;;;31.98;3.53;;;;;;;8.73;88.31;101047.44;5007061;28;20594;-70
2022/01/03 02:06:21;;;;;;;31.20;4.13;;;;;;;8.77;88.17;101041.03;5006584;28;20045;-70
2022/01/03 02:09:08;;;;;;;23.23;4.35;;;;;;;8.82;87.92;101038.88;5029928;28;20044;-70
2022/01/03 02:11:58;;;;;;;31.08;3.15;;;;;;;8.83;87.54;101050.03;5011590;28;20047;-70
2022/01/03 02:14:36;;;;;;;24.23;3.05;;;;;;;8.77;87.72;101049.59;5018653;28;20029;-70
2022/01/03 02:17:04;;;;;;;18.75;2.72;;;;;;;8.85;87.35;101045.53;5011426;28;20033;-70
2022/01/03 02:19:30;;;;;;;29.40;3.22;;;;;;;8.84;86.75;101043.91;5029831;28;20509;-70
2022/01/03 02:21:56;;;;;;;22.10;2.85;;;;;;;8.93;86.04;101045.66;5011210;28;20029;-70
2022/01/03 02:24:29;;;;;;;26.05;2.65;;;;;;;8.82;86.47;101046.63;5017281;28;20038;-70
2022/01/03 02:27:00;;;;;;;25.50;3.42;;;;;;;8.83;86.19;101037.91;5011137;28;20034;-70
2022/01/03 02:29:25;;;;;;;19.05;2.08;;;;;;;8.82;85.56;101048.41;5010072;28;20045;-70
2022/01/03 02:31:51;;;;;;;27.00;2.13;;;;;;;8.85;85.48;101048.09;5026577;28;20060;-70
2022/01/03 02:34:17;;;;;;;17.92;3.17;;;;;;;8.83;85.94;101042.25;5009357;28;20071;-70
2022/01/03 02:36:44;;;;;;;35.13;3.72;;;;;;;8.77;85.77;101044.44;5006941;28;20607;-70
2022/01/03 02:39:10;;;;;;;19.17;3.17;;;;;;;8.74;86.19;101052.50;5027564;28;20068;-70
2022/01/03 02:41:36;;;;;;;17.15;3.42;;;;;;;8.79;85.75;101039.13;5008833;28;20041;-70
2022/01/03 02:44:02;;;;;;;16.02;2.33;;;;;;;8.76;85.84;101039.44;5027226;28;20030;-70
2022/01/03 02:46:28;;;;;;;18.38;2.00;;;;;;;8.74;86.06;101041.34;5009394;28;20033;-70
2022/01/03 02:48:54;;;;;;;14.10;2.10;;;;;;;8.71;86.01;101036.44;5011820;28;20641;-70
2022/01/03 02:51:20;;;;;;;15.00;3.25;;;;;;;8.60;86.39;101034.00;5027946;28;20037;-70
2022/01/03 02:53:46;;;;;;;23.90;2.70;;;;;;;8.62;86.42;101045.81;5029702;28;20029;-70
2022/01/03 02:56:12;;;;;;;18.98;2.78;;;;;;;8.65;86.02;101044.75;5006143;28;20570;-70
2022/01/03 02:58:39;;;;;;;18.35;2.20;;;;;;;8.66;86.26;101042.00;5010051;28;20061;-70
2022/01/03 03:01:05;;;;;;;28.83;3.13;;;;;;;8.64;86.30;101038.75;4993450;28;20033;-70
2022/01/03 03:03:39;;;;;;;21.67;3.22;;;;;;;8.68;86.32;101040.13;5009101;28;20033;-70
2022/01/03 03:06:05;;;;;;;24.98;3.03;;;;;;;8.64;86.31;101037.94;5027223;28;20946;-70
2022/01/03 03:08:32;;;;;;;17.42;2.45;;;;;;;8.61;86.49;101049.38;5010442;28;20071;-70
2022/01/03 03:10:59;;;;;;;22.10;1.83;;;;;;;8.58;86.91;101047.06;5008159;28;20029;-69
2022/01/03 03:13:24;;;;;;;25.00;3.63;;;;;;;8.55;87.19;101039.56;5026129;28;20513;-70
2022/01/03 03:15:51;;;;;;;15.40;1.90;;;;;;;8.54;87.05;101049.09;5009302;28;20502;-70
2022/01/03 03:18:17;;;;;;;32.40;3.88;;;;;;;8.59;86.66;101038.34;4992103;28;20041;-70
2022/01/03 03:20:44;;;;;;;22.10;2.60;;;;;;;8.51;87.09;101036.47;5009283;28;20064;-69
2022/01/03 03:23:10;;;;;;;17.88;3.13;;;;;;;8.49;87.36;101050.44;5028366;28;20045;-70
2022/01/03 03:25:37;;;;;;;21.33;3.55;;;;;;;8.49;87.40;101043.50;5009312;28;20660;-70
2022/01/03 03:28:12;;;;;;;17.30;2.33;;;;;;;8.47;87.63;101050.59;4995526;28;20125;-70
2022/01/03 03:30:42;;;;;;;18.13;4.03;;;;;;;8.46;87.64;101051.56;5011155;28;20060;-70
2022/01/03 03:33:13;;;;;;;17.27;2.20;;;;;;;8.48;87.81;101044.47;5026716;28;20065;-70
2022/01/03 03:35:43;;;;;;;23.25;3.08;;;;;;;8.47;87.96;101044.59;5024875;28;20885;-70
2022/01/03 03:38:11;;;;;;;30.48;2.38;;;;;;;8.43;88.18;101048.41;5009319;28;20029;-70
2022/01/03 03:40:37;;;;;;;21.42;2.28;;;;;;;8.43;88.64;101046.63;5010114;28;20454;-70
2022/01/03 03:43:04;;;;;;;32.42;3.55;;;;;;;8.40;88.58;101046.91;5025446;28;20025;-70
2022/01/03 03:45:30;;;;;;;29.00;3.60;;;;;;;8.47;88.15;101049.78;5008539;28;20017;-70
2022/01/03 03:47:57;;;;;;;26.58;4.93;;;;;;;8.49;88.03;101051.25;5026987;28;20115;-70
2022/01/03 03:50:25;;;;;;;54.45;11.88;;;;;;;8.46;88.15;101048.16;5010255;28;20120;-69
2022/01/03 03:52:51;;;;;;;36.35;9.18;;;;;;;8.49;88.15;101056.44;5009889;28;20394;-70
2022/01/03 03:55:18;;;;;;;39.67;13.18;;;;;;;8.57;87.84;101058.34;4993131;28;20033;-70
2022/01/03 03:57:44;;;;;;;74.63;24.95;;;;;;;8.53;88.11;101057.81;4984364;28;20033;-70
2022/01/03 04:00:13;;;;;;;31.48;5.00;;;;;;;8.54;88.02;101058.63;5026498;28;20033;-70
2022/01/03 04:02:39;;;;;;;38.08;11.73;;;;;;;8.51;88.69;101056.28;5007543;28;20041;-70
2022/01/03 04:05:06;;;;;;;18.30;4.20;;;;;;;8.45;88.59;101054.25;5024774;28;20037;-70
2022/01/03 04:07:32;;;;;;;32.05;3.10;;;;;;;8.44;88.80;101050.03;5023451;28;20064;-70
2022/01/03 04:09:58;;;;;;;32.08;5.60;;;;;;;8.41;88.84;101048.50;5007924;28;20061;-70
2022/01/03 04:12:24;;;;;;;26.25;3.05;;;;;;;8.38;88.80;101041.88;5004625;28;20083;-70
2022/01/03 04:14:50;;;;;;;24.38;6.25;;;;;;;8.33;88.86;101035.47;5004240;28;20508;-70
2022/01/03 04:17:17;;;;;;;22.73;4.45;;;;;;;8.38;88.79;101039.28;5020442;28;20036;-70
2022/01/03 04:19:43;;;;;;;31.08;5.30;;;;;;;8.37;88.91;101036.81;5003523;28;20025;-70
2022/01/03 04:22:09;;;;;;;26.25;6.18;;;;;;;8.37;88.98;101044.56;5020917;28;20392;-69
2022/01/03 04:24:36;;;;;;;22.55;3.10;;;;;;;8.39;88.85;101042.66;5008613;28;20037;-69
2022/01/03 04:27:02;;;;;;;20.38;3.45;;;;;;;8.38;88.20;101034.09;5026669;28;20396;-70
2022/01/03 04:29:28;;;;;;;31.92;3.83;;;;;;;8.46;88.01;101035.22;5007689;28;20025;-69
2022/01/03 04:31:53;;;;;;;22.33;2.90;;;;;;;8.39;87.89;101035.72;5008001;28;20040;-70
2022/01/03 04:34:20;;;;;;;25.23;2.60;;;;;;;8.49;87.54;101035.75;5008400;28;20025;-69
2022/01/03 04:36:46;;;;;;;21.92;2.92;;;;;;;8.55;87.12;101031.81;5013598;28;20107;-69
2022/01/03 04:39:12;;;;;;;29.13;3.47;;;;;;;8.50;87.44;101032.22;5012512;28;20033;-70
2022/01/03 04:41:38;;;;;;;21.58;2.95;;;;;;;8.51;87.07;101033.03;5031106;28;20036;-69
2022/01/03 04:44:07;;;;;;;19.38;2.53;;;;;;;8.51;87.32;101026.13;5030993;28;20025;-70
2022/01/03 04:46:34;;;;;;;25.40;2.60;;;;;;;8.53;86.88;101025.97;5015357;28;20041;-70
2022/01/03 04:49:00;;;;;;;22.55;2.67;;;;;;;8.53;86.82;101026.78;5032919;28;20029;-69
2022/01/03 04:51:27;;;;;;;31.25;4.30;;;;;;;8.56;86.54;101020.53;5013034;28;20510;-70
2022/01/03 04:53:52;;;;;;;19.08;2.58;;;;;;;8.50;86.46;101019.31;5011865;28;20030;-70
2022/01/03 04:56:18;;;;;;;20.58;3.30;;;;;;;8.47;86.61;101026.50;5013086;28;20048;-70
2022/01/03 04:58:44;;;;;;;16.35;2.30;;;;;;;8.45;86.76;101024.06;5029001;28;20029;-69
2022/01/03 05:01:11;;;;;;;21.85;2.95;;;;;;;8.49;86.72;101024.59;5029223;28;20499;-70
2022/01/03 05:03:38;;;;;;;20.35;2.50;;;;;;;8.49;86.48;101024.59;5011500;28;20112;-70
2022/01/03 05:06:04;;;;;;;23.08;4.90;;;;;;;8.53;86.25;101026.78;5011430;28;20122;-69
2022/01/03 05:08:31;;;;;;;17.83;3.90;;;;;;;8.58;86.31;101021.19;5029402;28;20029;-70
2022/01/03 05:11:00;;;;;;;28.13;5.45;;;;;;;8.55;86.18;101024.06;5015742;28;20041;-70
2022/01/03 05:13:31;;;;;;;16.20;3.78;;;;;;;8.55;86.54;101024.06;5029096;28;20499;-70
2022/01/03 05:15:58;;;;;;;25.75;4.70;;;;;;;8.58;86.43;101026.38;5009512;28;20063;-70
2022/01/03 05:18:24;;;;;;;24.92;3.25;;;;;;;8.61;86.43;101022.69;5013840;28;20499;-70
2022/01/03 05:20:50;;;;;;;26.40;3.40;;;;;;;8.66;85.89;101013.56;5029557;28;20039;-69
2022/01/03 05:23:16;;;;;;;18.10;2.63;;;;;;;8.65;86.28;101016.31;5017888;28;20056;-70
2022/01/03 05:25:42;;;;;;;24.92;4.32;;;;;;;8.67;86.01;101011.81;5030305;28;20041;-70
2022/01/03 05:28:08;;;;;;;14.48;2.92;;;;;;;8.67;85.93;101012.63;5013578;28;20034;-70
2022/01/03 05:30:34;;;;;;;21.73;2.42;;;;;;;8.69;86.46;101009.91;5017919;28;20454;-70
2022/01/03 05:33:00;;;;;;;22.85;2.35;;;;;;;8.66;86.48;101017.94;5014622;28;20030;-70
2022/01/03 05:35:26;;;;;;;20.48;2.53;;;;;;;8.63;86.52;101006.09;5027484;28;20148;-70
2022/01/03 05:37:52;;;;;;;20.50;2.97;;;;;;;8.65;86.79;101000.81;5027430;28;20041;-70
2022/01/03 05:40:18;;;;;;;22.52;2.40;;;;;;;8.59;86.95;101009.91;5012445;28;20099;-70
2022/01/03 05:42:46;;;;;;;15.45;2.97;;;;;;;8.62;86.44;100999.28;5027192;28;20026;-70
2022/01/03 05:45:13;;;;;;;28.52;2.92;;;;;;;8.56;86.54;101015.34;5008956;28;20545;-70
2022/01/03 05:47:42;;;;;;;26.48;2.60;;;;;;;8.54;86.93;101005.16;4990969;28;20049;-69
2022/01/03 05:50:09;;;;;;;19.63;2.47;;;;;;;8.57;87.10;101004.88;5011599;28;20033;-70
2022/01/03 05:52:35;;;;;;;21.58;2.45;;;;;;;8.54;87.29;100996.59;5011560;28;20040;-69
2022/01/03 05:55:02;;;;;;;26.90;2.78;;;;;;;8.57;87.40;100991.97;5027294;28;20039;-70
2022/01/03 05:57:29;;;;;;;24.15;5.05;;;;;;;8.53;87.33;100998.38;5010975;28;20021;-70
2022/01/03 05:59:55;;;;;;;18.40;2.90;;;;;;;8.56;86.89;100994.69;5011645;28;20033;-70
2022/01/03 06:02:21;;;;;;;28.80;4.25;;;;;;;8.60;86.88;100988.28;5030176;28;20049;-70
2022/01/03 06:05:00;;;;;;;22.38;2.35;;;;;;;8.54;87.21;100992.22;4994748;28;20029;-70
2022/01/03 06:07:26;;;;;;;19.30;2.75;;;;;;;8.66;87.09;100995.47;5007177;28;20042;-70
2022/01/03 06:09:52;;;;;;;22.20;2.40;;;;;;;8.61;87.00;100982.16;5011746;28;20040;-70
2022/01/03 06:12:19;;;;;;;20.60;2.15;;;;;;;8.65;86.74;100983.50;5010646;28;20506;-69
2022/01/03 06:14:48;;;;;;;20.52;3.75;;;;;;;8.74;86.38;100976.69;5011816;28;20112;-70
2022/01/03 06:17:15;;;;;;;17.02;2.28;;;;;;;8.64;86.88;100976.69;5006707;28;20044;-69
2022/01/03 06:19:43;;;;;;;27.42;2.45;;;;;;;8.73;86.80;100991.38;5027393;28;20034;-70
2022/01/03 06:22:09;;;;;;;20.50;3.13;;;;;;;8.76;86.29;100972.19;5005092;28;20108;-69
2022/01/03 06:24:38;;;;;;;28.42;2.30;;;;;;;8.70;86.49;100968.41;5011887;28;20399;-70
2022/01/03 06:27:05;;;;;;;25.23;2.88;;;;;;;8.72;86.75;100974.25;5009732;28;20036;-69
2022/01/03 06:29:32;;;;;;;23.30;3.38;;;;;;;8.71;87.03;100977.78;5016676;28;20484;-70
2022/01/03 06:31:58;;;;;;;19.90;2.50;;;;;;;8.74;86.69;100979.28;5028190;28;20029;-70
2022/01/03 06:34:25;;;;;;;13.88;2.05;;;;;;;8.75;86.39;100980.91;5008435;28;20063;-69
2022/01/03 06:36:51;;;;;;;26.73;2.83;;;;;;;8.82;86.25;100969.06;5027074;28;20079;-70
2022/01/03 06:39:17;;;;;;;21.33;2.47;;;;;;;8.76;86.33;100957.50;5011858;28;20029;-70
2022/01/03 06:41:44;;;;;;;20.95;2.63;;;;;;;8.79;86.20;100964.16;5027652;28;20391;-70
2022/01/03 06:44:11;;;;;;;16.48;2.60;;;;;;;8.74;86.17;100961.19;4995162;28;20037;-70
2022/01/03 06:46:37;;;;;;;19.45;3.22;;;;;;;8.67;86.60;100952.34;5026012;28;20052;-70
2022/01/03 06:49:06;;;;;;;20.50;3.88;;;;;;;8.69;85.67;100956.41;5025180;28;20039;-69
2022/01/03 06:51:34;;;;;;;22.33;3.00;;;;;;;8.65;85.89;100959.44;5027329;28;20076;-70
2022/01/03 06:54:06;;;;;;;19.85;3.28;;;;;;;8.58;85.99;100965.13;5009869;28;20060;-70
2022/01/03 06:56:33;;;;;;;22.80;3.83;;;;;;;8.55;86.27;100962.00;5010091;28;20033;-70
2022/01/03 06:58:59;;;;;;;25.60;2.90;;;;;;;8.49;86.56;100965.16;5010387;28;20391;-70
2022/01/03 07:01:24;;;;;;;24.23;2.67;;;;;;;8.61;86.15;100960.66;5008138;28;20037;-70
2022/01/03 07:03:50;;;;;;;25.52;3.25;;;;;;;8.49;87.03;100965.97;5008669;28;20113;-69
2022/01/03 07:06:16;;;;;;;22.83;2.95;;;;;;;8.53;87.17;100974.25;5025241;28;20049;-70
2022/01/03 07:08:42;;;;;;;21.58;2.67;;;;;;;8.52;87.14;100973.47;5022535;28;20539;-69
2022/01/03 07:11:08;;;;;;;16.65;2.55;;;;;;;8.59;87.14;100971.16;5023705;28;20112;-69
2022/01/03 07:13:42;;;;;;;33.47;3.72;;;;;;;8.64;86.59;100961.19;5028469;28;20064;-70
2022/01/03 07:19:00;;;;;;;19.15;2.55;;;;;;;8.54;86.54;100960.41;5033872;28;20551;-70
2022/01/03 07:21:28;;;;;;;17.63;2.28;;;;;;;8.61;86.82;100956.31;5027581;28;20041;-70
2022/01/03 07:23:54;;;;;;;19.02;3.20;;;;;;;8.54;86.82;100960.41;5006829;28;20067;-69
2022/01/03 07:26:20;;;;;;;20.40;2.10;;;;;;;8.58;87.08;100959.97;5032119;28;20037;-69
2022/01/03 07:28:46;;;;;;;21.60;2.95;;;;;;;8.54;87.83;100963.00;5027471;28;20083;-69
2022/01/03 07:31:11;;;;;;;19.40;4.10;;;;;;;8.51;88.26;100971.84;5009694;28;20195;-70
2022/01/03 07:33:37;;;;;;;20.88;2.38;;;;;;;8.51;88.54;100968.41;5025975;28;20555;-69
2022/01/03 07:36:03;;;;;;;18.02;2.85;;;;;;;8.41;88.45;100971.00;5026282;28;20148;-68
2022/01/03 07:38:29;;;;;;;27.65;3.85;;;;;;;8.41;88.52;100970.19;5008513;28;20036;-68
2022/01/03 07:40:54;;;;;;;23.10;3.47;;;;;;;8.45;88.35;100968.97;5008438;28;20061;-67
2022/01/03 07:43:20;;;;;;;22.60;3.88;;;;;;;8.34;88.91;100965.56;5009152;28;20033;-68
2022/01/03 07:45:46;;;;;;;26.33;3.17;;;;;;;8.38;88.71;100964.34;5008649;28;20514;-68
2022/01/03 07:48:12;;;;;;;19.92;3.10;;;;;;;8.41;88.59;100973.56;5000064;28;20029;-68
2022/01/03 07:50:37;;;;;;;23.60;3.42;;;;;;;8.44;88.66;100967.34;5007442;28;20550;-67
2022/01/03 07:53:04;;;;;;;24.98;4.15;;;;;;;8.49;88.60;100975.50;5027601;28;20037;-67
2022/01/03 07:55:30;;;;;;;24.35;3.17;;;;;;;8.49;88.69;100978.09;5008975;28;20040;-67
2022/01/03 07:57:56;;;;;;;20.05;3.53;;;;;;;8.42;89.03;100966.66;5025567;28;20068;-67
2022/01/03 08:00:22;;;;;;;24.95;3.58;;;;;;;8.47;88.99;100985.16;5007252;28;20164;-67
2022/01/03 08:02:48;;;;;;;23.80;3.38;;;;;;;8.42;89.61;100980.41;5026726;28;20045;-68
2022/01/03 08:05:15;;;;;;;46.80;4.32;;;;;;;8.39;89.43;100988.41;5022830;28;20502;-68
2022/01/03 08:07:43;;;;;;;15.32;2.30;;;;;;;8.45;89.52;100987.06;5025946;28;20037;-68
2022/01/03 08:10:10;;;;;;;21.25;3.53;;;;;;;8.48;89.61;100991.97;4997744;28;20045;-68
2022/01/03 08:12:37;;;;;;;24.83;2.65;;;;;;;8.50;90.15;100980.53;5022931;28;20045;-68
2022/01/03 08:15:07;;;;;;;24.65;3.15;;;;;;;8.52;90.22;100994.13;5007663;28;20516;-68
2022/01/03 08:17:33;;;;;;;24.73;3.47;;;;;;;8.54;90.18;100981.88;5009980;28;20096;-67
2022/01/03 08:19:59;;;;;;;28.77;2.63;;;;;;;8.53;90.69;100992.34;4997756;28;20037;-67
2022/01/03 08:22:25;;;;;;;25.70;3.10;;;;;;;8.58;90.20;100992.78;5002680;28;20026;-68
2022/01/03 08:24:51;;;;;;;23.50;3.38;;;;;;;8.60;90.26;100997.81;5026540;28;20037;-68
2022/01/03 08:27:16;;;;;;;25.70;4.00;;;;;;;8.61;90.34;100999.41;5023611;28;20053;-68
2022/01/03 08:29:42;;;;;;;24.80;4.22;;;;;;;8.63;89.92;101000.94;5012865;28;20087;-68
2022/01/03 08:32:10;;;;;;;29.42;4.78;;;;;;;8.75;89.56;100999.81;4992488;28;20080;-68
2022/01/03 08:34:36;;;;;;;29.92;3.92;;;;;;;8.74;89.80;100997.38;5025940;28;21028;-68
2022/01/03 08:37:02;;;;;;;18.58;3.25;;;;;;;8.75;89.82;101004.97;5025933;28;20033;-68
2022/01/03 08:39:27;;;;;;;18.05;3.28;;;;;;;8.73;90.36;100995.75;5024863;28;20029;-68
2022/01/03 08:41:53;;;;;;;31.30;3.15;;;;;;;8.74;90.19;100995.59;5025342;28;20036;-68
2022/01/03 08:44:19;;;;;;;22.48;3.05;;;;;;;8.82;89.95;100987.16;5021762;28;20025;-68
2022/01/03 08:46:46;;;;;;;20.73;2.95;;;;;;;8.85;89.05;100975.69;5025394;28;20037;-67
2022/01/03 08:49:13;;;;;;;24.17;3.15;;;;;;;8.88;88.92;100971.06;5004833;28;20033;-68
2022/01/03 08:51:39;;;;;;;30.05;3.70;;;;;;;8.85;89.04;100978.28;4991049;28;20120;-68
2022/01/03 08:54:05;;;;;;;22.77;2.70;;;;;;;8.86;88.90;100977.34;5025094;28;20116;-68
2022/01/03 08:56:31;;;;;;;18.13;2.95;;;;;;;8.87;88.87;100979.81;5006641;28;20033;-68
2022/01/03 08:58:56;;;;;;;29.17;4.32;;;;;;;8.88;88.65;100968.47;5008395;28;20045;-68
2022/01/03 09:01:22;;;;;;;30.52;3.92;;;;;;;8.99;88.02;100971.88;5025699;28;20079;-67
2022/01/03 09:03:50;;;;;;;26.60;3.80;;;;;;;8.99;87.62;100980.44;5021143;28;20076;-68
2022/01/03 09:06:20;;;;;;;28.50;3.53;;;;;;;8.96;87.57;100980.72;5017978;28;20076;-68
2022/01/03 09:08:46;;;;;;;24.67;3.25;;;;;;;9.04;86.82;100973.06;5007604;28;20583;-68
2022/01/03 09:11:13;;;;;;;26.52;3.70;;;;;;;9.10;86.13;100966.53;5008715;28;20060;-68
2022/01/03 09:13:39;;;;;;;25.45;3.00;;;;;;;9.04;86.53;100970.50;5025366;28;20036;-68
2022/01/03 09:16:06;;;;;;;22.92;3.08;;;;;;;9.07;86.94;100967.59;5007477;28;20029;-67
2022/01/03 09:18:34;;;;;;;19.55;3.35;;;;;;;9.12;85.06;100970.59;5007378;28;20025;-68
2022/01/03 09:20:59;;;;;;;22.38;2.83;;;;;;;9.16;85.39;100973.72;5011265;28;20026;-68
2022/01/03 09:23:30;;;;;;;15.55;2.97;;;;;;;9.28;84.65;100976.91;5029819;28;20373;-68
2022/01/03 09:28:49;;;;;;;22.77;2.58;;;;;;;9.32;84.29;100986.84;5028331;28;20049;-67
2022/01/03 09:31:36;;;;;;;26.95;2.97;;;;;;;9.47;83.46;100983.78;5000128;28;20040;-67
2022/01/03 09:34:04;;;;;;;29.52;3.40;;;;;;;9.50;83.45;100978.31;4993487;28;20535;-68
2022/01/03 09:36:31;;;;;;;20.10;4.32;;;;;;;9.60;83.25;100984.25;5015935;28;20415;-67
2022/01/03 09:38:58;;;;;;;17.20;4.07;;;;;;;9.61;82.58;100985.88;5027510;28;20075;-67
2022/01/03 09:41:26;;;;;;;23.63;3.40;;;;;;;9.63;82.66;100972.81;5029294;28;20033;-68
2022/01/03 09:44:04;;;;;;;15.65;2.67;;;;;;;9.64;82.37;100989.94;5010988;28;20123;-67
2022/01/03 09:46:41;;;;;;;18.40;2.53;;;;;;;9.55;82.67;100979.50;5026454;28;20049;-67
2022/01/03 09:49:09;;;;;;;20.25;3.17;;;;;;;9.66;81.80;100975.09;4994090;28;20061;-67
2022/01/03 09:51:36;;;;;;;17.02;1.92;;;;;;;9.68;82.20;100973.16;5015392;28;20041;-68
2022/01/03 09:54:05;;;;;;;30.33;4.13;;;;;;;9.69;82.34;100975.59;5010929;28;20109;-67
2022/01/03 09:56:33;;;;;;;23.63;2.83;;;;;;;9.75;82.47;100967.25;5021817;28;20084;-67
2022/01/03 09:59:00;;;;;;;13.45;2.17;;;;;;;9.75;82.08;100981.97;5027985;28;20033;-68
2022/01/03 10:01:27;;;;;;;26.80;2.88;;;;;;;9.76;81.20;100968.09;5011230;28;20047;-67
2022/01/03 10:03:54;;;;;;;20.92;2.50;;;;;;;9.72;81.30;100951.22;4993213;28;20122;-67
2022/01/03 10:06:20;;;;;;;21.20;2.42;;;;;;;9.65;81.45;100965.69;5008767;28;20052;-67
2022/01/03 10:08:47;;;;;;;18.55;3.15;;;;;;;9.63;81.81;100957.28;5005058;28;20040;-68
2022/01/03 10:11:14;;;;;;;19.10;3.58;;;;;;;9.65;81.84;100963.13;5026879;28;20041;-67
2022/01/03 10:13:41;;;;;;;12.57;2.30;;;;;;;9.65;82.21;100957.94;5010218;28;20037;-67
2022/01/03 10:16:07;;;;;;;23.95;2.72;;;;;;;9.76;81.47;100962.91;5027494;28;20056;-67
2022/01/03 10:18:33;;;;;;;14.02;2.63;;;;;;;9.80;80.68;100948.69;5027586;28;20219;-67
2022/01/03 10:21:00;;;;;;;27.33;3.03;;;;;;;9.75;81.29;100956.88;5025458;28;20036;-67
2022/01/03 10:23:26;;;;;;;22.08;3.60;;;;;;;9.74;81.73;100938.94;5007325;28;20124;-67
2022/01/03 10:25:51;;;;;;;20.35;2.25;;;;;;;9.77;81.42;100948.16;5028070;28;20034;-67
2022/01/03 10:28:23;;;;;;;21.60;3.45;;;;;;;9.77;81.13;100946.38;5009258;28;20037;-67
2022/01/03 10:30:49;;;;;;;20.67;3.83;;;;;;;9.72;81.84;100946.03;5006868;28;20029;-68
2022/01/03 10:33:23;;;;;;;14.98;1.85;;;;;;;9.81;81.04;100947.72;5009468;28;20040;-67
2022/01/03 10:35:49;;;;;;;17.52;3.33;;;;;;;9.74;81.42;100939.75;5013722;28;20033;-67
2022/01/03 10:38:43;;;;;;;21.58;3.10;;;;;;;9.70;81.55;100932.41;5026912;28;20117;-67
2022/01/03 10:41:16;;;;;;;24.30;3.17;;;;;;;9.78;81.99;100934.28;5010394;28;20038;-68
2022/01/03 10:43:43;;;;;;;21.35;3.00;;;;;;;9.76;81.80;100926.66;5009502;28;20116;-68
2022/01/03 10:46:17;;;;;;;27.83;2.95;;;;;;;9.85;81.59;100932.69;5031986;28;20450;-68
2022/01/03 10:48:43;;;;;;;15.82;2.78;;;;;;;9.85;81.67;100928.34;5002811;28;20037;-67
2022/01/03 10:51:08;;;;;;;13.95;2.05;;;;;;;9.95;81.42;100920.50;5021307;28;20064;-68
2022/01/03 10:53:42;;;;;;;24.08;3.03;;;;;;;10.00;81.22;100926.06;5014672;28;20034;-68
2022/01/03 10:56:28;;;;;;;23.75;3.08;;;;;;;10.05;81.31;100907.47;5010295;28;20033;-68
2022/01/03 10:58:59;;;;;;;16.92;2.20;;;;;;;10.12;81.79;100911.09;5008967;28;20029;-68
2022/01/03 11:01:28;;;;;;;18.30;2.30;;;;;;;10.19;80.36;100908.69;5010664;28;20037;-68
2022/01/03 11:03:55;;;;;;;16.50;2.22;;;;;;;10.26;79.67;100914.91;4991140;28;20555;-68
2022/01/03 11:06:36;;;;;;;19.38;2.80;;;;;;;10.27;80.96;100911.38;5005527;28;20044;-67
2022/01/03 11:11:49;;;;;;;22.90;2.35;;;;;;;10.46;79.26;100900.03;5008352;28;20466;-68
2022/01/03 11:14:39;;;;;;;17.15;2.47;;;;;;;10.41;79.93;100902.25;5008986;28;20021;-67
2022/01/03 11:17:22;;;;;;;22.00;2.75;;;;;;;10.49;79.63;100902.28;5005097;28;20052;-67
2022/01/03 11:19:48;;;;;;;22.13;2.83;;;;;;;10.55;79.32;100911.22;5024917;28;20045;-68
2022/01/03 11:22:44;;;;;;;19.73;3.00;;;;;;;10.52;79.83;100894.22;5026878;28;20029;-68
2022/01/03 11:25:11;;;;;;;11.32;2.53;;;;;;;10.51;80.09;100880.44;5020080;28;20117;-68
2022/01/03 11:27:40;;;;;;;19.00;1.83;;;;;;;10.50;79.07;100871.03;5018574;28;20084;-67
2022/01/03 11:30:10;;;;;;;20.27;2.30;;;;;;;10.51;79.16;100875.25;5027711;28;20029;-68
2022/01/03 11:32:39;;;;;;;15.23;1.98;;;;;;;10.51;79.59;100853.72;5019079;28;20220;-68
2022/01/03 11:35:05;;;;;;;13.18;2.10;;;;;;;10.49;79.57;100866.81;5009772;28;20025;-68
2022/01/03 11:37:33;;;;;;;10.85;2.20;;;;;;;10.56;79.31;100859.22;5021029;28;20070;-68